sensor_id;sensor_type;location;lat;lon;timestamp;P1;durP1;ratioP1;P2;durP2;ratioP2
11572;SDS011;5842;52.426;4.886;2022-08-19T00:01:29;13.97;;;9.20;;
11572;SDS011;5842;52.426;4.886;2022-08-19T00:03:56;12.57;;;10.13;;
11572;SDS011;5842;52.426;4.886;2022-08-19T00:06:24;11.83;;;9.23;;
11572;SDS011;5842;52.426;4.886;2022-08-19T00:08:53;11.70;;;9.60;;
11572;SDS011;5842;52.426;4.886;2022-08-19T00:11:21;12.50;;;9.83;;
11572;SDS011;5842;52.426;4.886;2022-08-19T00:13:52;12.07;;;10.07;;
11572;SDS011;5842;52.426;4.886;2022-08-19T00:16:19;13.90;;;9.80;;
11572;SDS011;5842;52.426;4.886;2022-08-19T00:18:47;13.30;;;9.63;;
11572;SDS011;5842;52.426;4.886;2022-08-19T00:21:15;13.47;;;10.23;;
11572;SDS011;5842;52.426;4.886;2022-08-19T00:23:43;11.07;;;9.17;;
11572;SDS011;5842;52.426;4.886;2022-08-19T00:26:11;12.97;;;9.63;;
11572;SDS011;5842;52.426;4.886;2022-08-19T00:28:39;16.57;;;12.33;;
11572;SDS011;5842;52.426;4.886;2022-08-19T00:31:06;12.97;;;11.13;;
11572;SDS011;5842;52.426;4.886;2022-08-19T00:33:34;15.27;;;11.23;;
11572;SDS011;5842;52.426;4.886;2022-08-19T00:36:02;13.17;;;11.70;;
11572;SDS011;5842;52.426;4.886;2022-08-19T00:38:32;12.07;;;10.03;;
11572;SDS011;5842;52.426;4.886;2022-08-19T00:40:59;12.97;;;10.30;;
11572;SDS011;5842;52.426;4.886;2022-08-19T00:43:28;10.57;;;9.47;;
11572;SDS011;5842;52.426;4.886;2022-08-19T00:45:55;11.90;;;9.60;;
11572;SDS011;5842;52.426;4.886;2022-08-19T00:48:23;13.67;;;9.67;;
11572;SDS011;5842;52.426;4.886;2022-08-19T00:50:50;12.47;;;9.63;;
11572;SDS011;5842;52.426;4.886;2022-08-19T00:53:21;13.23;;;9.33;;
11572;SDS011;5842;52.426;4.886;2022-08-19T00:55:52;11.30;;;10.10;;
11572;SDS011;5842;52.426;4.886;2022-08-19T00:58:25;13.13;;;10.30;;
11572;SDS011;5842;52.426;4.886;2022-08-19T01:00:56;13.93;;;10.93;;
11572;SDS011;5842;52.426;4.886;2022-08-19T01:03:23;16.83;;;11.80;;
11572;SDS011;5842;52.426;4.886;2022-08-19T01:05:50;14.67;;;11.30;;
11572;SDS011;5842;52.426;4.886;2022-08-19T01:08:20;13.87;;;11.47;;
11572;SDS011;5842;52.426;4.886;2022-08-19T01:10:48;15.70;;;12.00;;
11572;SDS011;5842;52.426;4.886;2022-08-19T01:13:17;12.07;;;10.43;;
11572;SDS011;5842;52.426;4.886;2022-08-19T01:15:48;12.60;;;11.27;;
11572;SDS011;5842;52.426;4.886;2022-08-19T01:18:20;12.80;;;10.60;;
11572;SDS011;5842;52.426;4.886;2022-08-19T01:20:48;13.77;;;10.93;;
11572;SDS011;5842;52.426;4.886;2022-08-19T01:23:16;11.33;;;9.90;;
11572;SDS011;5842;52.426;4.886;2022-08-19T01:25:45;12.73;;;9.30;;
11572;SDS011;5842;52.426;4.886;2022-08-19T01:28:15;13.93;;;10.70;;
11572;SDS011;5842;52.426;4.886;2022-08-19T01:30:44;13.93;;;11.20;;
11572;SDS011;5842;52.426;4.886;2022-08-19T01:33:12;18.37;;;13.13;;
11572;SDS011;5842;52.426;4.886;2022-08-19T01:35:40;14.50;;;12.03;;
11572;SDS011;5842;52.426;4.886;2022-08-19T01:38:19;16.07;;;12.50;;
11572;SDS011;5842;52.426;4.886;2022-08-19T01:40:49;15.23;;;12.13;;
11572;SDS011;5842;52.426;4.886;2022-08-19T01:43:16;16.60;;;12.20;;
11572;SDS011;5842;52.426;4.886;2022-08-19T01:45:44;18.30;;;13.33;;
11572;SDS011;5842;52.426;4.886;2022-08-19T01:48:12;21.47;;;15.40;;
11572;SDS011;5842;52.426;4.886;2022-08-19T01:50:40;23.40;;;17.33;;
11572;SDS011;5842;52.426;4.886;2022-08-19T01:53:09;25.53;;;18.07;;
11572;SDS011;5842;52.426;4.886;2022-08-19T01:55:39;25.47;;;17.97;;
11572;SDS011;5842;52.426;4.886;2022-08-19T01:58:09;19.93;;;15.53;;
11572;SDS011;5842;52.426;4.886;2022-08-19T02:00:41;22.03;;;16.23;;
11572;SDS011;5842;52.426;4.886;2022-08-19T02:03:10;20.63;;;15.73;;
11572;SDS011;5842;52.426;4.886;2022-08-19T02:05:37;20.50;;;15.43;;
11572;SDS011;5842;52.426;4.886;2022-08-19T02:08:05;20.73;;;15.50;;
11572;SDS011;5842;52.426;4.886;2022-08-19T02:10:32;24.20;;;16.63;;
11572;SDS011;5842;52.426;4.886;2022-08-19T02:13:01;19.97;;;14.63;;
11572;SDS011;5842;52.426;4.886;2022-08-19T02:15:28;20.80;;;15.47;;
11572;SDS011;5842;52.426;4.886;2022-08-19T02:17:57;22.00;;;15.77;;
11572;SDS011;5842;52.426;4.886;2022-08-19T02:20:24;24.80;;;17.17;;
11572;SDS011;5842;52.426;4.886;2022-08-19T02:22:51;22.57;;;16.10;;
11572;SDS011;5842;52.426;4.886;2022-08-19T02:25:18;21.17;;;16.00;;
11572;SDS011;5842;52.426;4.886;2022-08-19T02:27:45;21.57;;;15.13;;
11572;SDS011;5842;52.426;4.886;2022-08-19T02:30:15;20.73;;;14.63;;
11572;SDS011;5842;52.426;4.886;2022-08-19T02:32:44;21.17;;;15.10;;
11572;SDS011;5842;52.426;4.886;2022-08-19T02:35:11;24.00;;;16.63;;
11572;SDS011;5842;52.426;4.886;2022-08-19T02:37:38;21.30;;;15.37;;
11572;SDS011;5842;52.426;4.886;2022-08-19T02:40:24;21.50;;;15.13;;
11572;SDS011;5842;52.426;4.886;2022-08-19T02:42:51;22.37;;;15.30;;
11572;SDS011;5842;52.426;4.886;2022-08-19T02:45:20;21.07;;;15.00;;
11572;SDS011;5842;52.426;4.886;2022-08-19T02:47:47;24.33;;;15.87;;
11572;SDS011;5842;52.426;4.886;2022-08-19T02:50:14;22.73;;;15.67;;
11572;SDS011;5842;52.426;4.886;2022-08-19T02:52:42;26.43;;;17.70;;
11572;SDS011;5842;52.426;4.886;2022-08-19T02:55:10;25.87;;;17.07;;
11572;SDS011;5842;52.426;4.886;2022-08-19T02:57:37;25.43;;;17.40;;
11572;SDS011;5842;52.426;4.886;2022-08-19T03:00:05;23.27;;;16.83;;
11572;SDS011;5842;52.426;4.886;2022-08-19T03:02:35;26.27;;;17.67;;
11572;SDS011;5842;52.426;4.886;2022-08-19T03:05:02;24.43;;;16.53;;
11572;SDS011;5842;52.426;4.886;2022-08-19T03:07:30;25.97;;;17.40;;
11572;SDS011;5842;52.426;4.886;2022-08-19T03:09:57;26.10;;;17.30;;
11572;SDS011;5842;52.426;4.886;2022-08-19T03:12:25;28.23;;;17.37;;
11572;SDS011;5842;52.426;4.886;2022-08-19T03:14:52;26.83;;;18.17;;
11572;SDS011;5842;52.426;4.886;2022-08-19T03:17:19;29.47;;;19.33;;
11572;SDS011;5842;52.426;4.886;2022-08-19T03:19:48;28.60;;;18.03;;
11572;SDS011;5842;52.426;4.886;2022-08-19T03:22:18;24.97;;;16.77;;
11572;SDS011;5842;52.426;4.886;2022-08-19T03:24:45;25.53;;;17.10;;
11572;SDS011;5842;52.426;4.886;2022-08-19T03:27:13;23.77;;;15.77;;
11572;SDS011;5842;52.426;4.886;2022-08-19T03:29:40;24.37;;;16.27;;
11572;SDS011;5842;52.426;4.886;2022-08-19T03:32:07;23.83;;;16.20;;
11572;SDS011;5842;52.426;4.886;2022-08-19T03:34:34;26.23;;;17.00;;
11572;SDS011;5842;52.426;4.886;2022-08-19T03:37:07;32.00;;;19.73;;
11572;SDS011;5842;52.426;4.886;2022-08-19T03:39:37;34.83;;;21.27;;
11572;SDS011;5842;52.426;4.886;2022-08-19T03:42:05;36.90;;;22.83;;
11572;SDS011;5842;52.426;4.886;2022-08-19T03:44:33;38.90;;;23.23;;
11572;SDS011;5842;52.426;4.886;2022-08-19T03:47:01;38.63;;;22.93;;
11572;SDS011;5842;52.426;4.886;2022-08-19T03:49:30;36.60;;;22.90;;
11572;SDS011;5842;52.426;4.886;2022-08-19T03:52:00;54.27;;;28.87;;
11572;SDS011;5842;52.426;4.886;2022-08-19T03:54:32;41.90;;;24.67;;
11572;SDS011;5842;52.426;4.886;2022-08-19T03:56:59;49.27;;;26.93;;
11572;SDS011;5842;52.426;4.886;2022-08-19T03:59:29;42.90;;;25.20;;
11572;SDS011;5842;52.426;4.886;2022-08-19T04:02:00;45.50;;;25.90;;
11572;SDS011;5842;52.426;4.886;2022-08-19T04:04:33;46.20;;;27.13;;
11572;SDS011;5842;52.426;4.886;2022-08-19T04:07:00;44.67;;;26.33;;
11572;SDS011;5842;52.426;4.886;2022-08-19T04:09:28;55.67;;;29.67;;
11572;SDS011;5842;52.426;4.886;2022-08-19T04:11:57;48.93;;;27.53;;
11572;SDS011;5842;52.426;4.886;2022-08-19T04:14:25;55.33;;;29.43;;
11572;SDS011;5842;52.426;4.886;2022-08-19T04:16:55;61.97;;;33.10;;
11572;SDS011;5842;52.426;4.886;2022-08-19T04:19:23;54.83;;;30.13;;
11572;SDS011;5842;52.426;4.886;2022-08-19T04:21:51;53.07;;;29.63;;
11572;SDS011;5842;52.426;4.886;2022-08-19T04:24:20;59.57;;;32.10;;
11572;SDS011;5842;52.426;4.886;2022-08-19T04:26:48;57.20;;;31.40;;
11572;SDS011;5842;52.426;4.886;2022-08-19T04:29:18;61.90;;;32.10;;
11572;SDS011;5842;52.426;4.886;2022-08-19T04:31:50;68.57;;;35.20;;
11572;SDS011;5842;52.426;4.886;2022-08-19T04:34:19;61.87;;;33.57;;
11572;SDS011;5842;52.426;4.886;2022-08-19T04:36:48;65.00;;;33.13;;
11572;SDS011;5842;52.426;4.886;2022-08-19T04:39:17;66.37;;;33.73;;
11572;SDS011;5842;52.426;4.886;2022-08-19T04:41:46;85.50;;;38.13;;
11572;SDS011;5842;52.426;4.886;2022-08-19T04:44:33;66.07;;;32.67;;
11572;SDS011;5842;52.426;4.886;2022-08-19T04:47:01;75.90;;;32.23;;
11572;SDS011;5842;52.426;4.886;2022-08-19T04:49:30;61.40;;;29.77;;
11572;SDS011;5842;52.426;4.886;2022-08-19T04:51:58;69.80;;;33.07;;
11572;SDS011;5842;52.426;4.886;2022-08-19T04:54:25;67.70;;;33.10;;
11572;SDS011;5842;52.426;4.886;2022-08-19T04:56:52;82.77;;;37.07;;
11572;SDS011;5842;52.426;4.886;2022-08-19T04:59:20;69.27;;;32.23;;
11572;SDS011;5842;52.426;4.886;2022-08-19T05:01:49;75.13;;;35.43;;
11572;SDS011;5842;52.426;4.886;2022-08-19T05:04:16;71.30;;;32.60;;
11572;SDS011;5842;52.426;4.886;2022-08-19T05:06:45;62.33;;;30.77;;
11572;SDS011;5842;52.426;4.886;2022-08-19T05:09:14;72.10;;;33.67;;
11572;SDS011;5842;52.426;4.886;2022-08-19T05:11:42;71.37;;;33.10;;
11572;SDS011;5842;52.426;4.886;2022-08-19T05:14:10;71.93;;;33.93;;
11572;SDS011;5842;52.426;4.886;2022-08-19T05:16:38;66.40;;;32.40;;
11572;SDS011;5842;52.426;4.886;2022-08-19T05:19:08;62.00;;;31.70;;
11572;SDS011;5842;52.426;4.886;2022-08-19T05:21:52;63.33;;;29.90;;
11572;SDS011;5842;52.426;4.886;2022-08-19T05:24:46;68.67;;;31.20;;
11572;SDS011;5842;52.426;4.886;2022-08-19T05:27:13;65.83;;;31.33;;
11572;SDS011;5842;52.426;4.886;2022-08-19T05:29:40;60.13;;;30.70;;
11572;SDS011;5842;52.426;4.886;2022-08-19T05:32:07;69.20;;;32.57;;
11572;SDS011;5842;52.426;4.886;2022-08-19T05:34:37;64.27;;;31.97;;
11572;SDS011;5842;52.426;4.886;2022-08-19T05:37:04;59.07;;;30.83;;
11572;SDS011;5842;52.426;4.886;2022-08-19T05:39:33;54.17;;;29.30;;
11572;SDS011;5842;52.426;4.886;2022-08-19T05:42:02;64.07;;;32.90;;
11572;SDS011;5842;52.426;4.886;2022-08-19T05:44:31;60.43;;;31.30;;
11572;SDS011;5842;52.426;4.886;2022-08-19T05:47:00;54.47;;;29.83;;
11572;SDS011;5842;52.426;4.886;2022-08-19T05:49:29;54.10;;;29.53;;
11572;SDS011;5842;52.426;4.886;2022-08-19T05:51:59;56.07;;;31.93;;
11572;SDS011;5842;52.426;4.886;2022-08-19T05:54:32;61.83;;;31.60;;
11572;SDS011;5842;52.426;4.886;2022-08-19T05:57:00;55.83;;;30.27;;
11572;SDS011;5842;52.426;4.886;2022-08-19T05:59:30;51.40;;;29.37;;
11572;SDS011;5842;52.426;4.886;2022-08-19T06:02:00;54.77;;;31.53;;
11572;SDS011;5842;52.426;4.886;2022-08-19T06:04:27;43.17;;;26.77;;
11572;SDS011;5842;52.426;4.886;2022-08-19T06:06:54;51.57;;;31.83;;
11572;SDS011;5842;52.426;4.886;2022-08-19T06:09:24;47.00;;;28.20;;
11572;SDS011;5842;52.426;4.886;2022-08-19T06:11:53;53.00;;;30.50;;
11572;SDS011;5842;52.426;4.886;2022-08-19T06:14:27;49.00;;;29.37;;
11572;SDS011;5842;52.426;4.886;2022-08-19T06:16:56;45.03;;;27.40;;
11572;SDS011;5842;52.426;4.886;2022-08-19T06:19:25;45.00;;;27.87;;
11572;SDS011;5842;52.426;4.886;2022-08-19T06:21:54;39.13;;;26.17;;
11572;SDS011;5842;52.426;4.886;2022-08-19T06:24:25;47.70;;;29.10;;
11572;SDS011;5842;52.426;4.886;2022-08-19T06:26:54;46.57;;;28.03;;
11572;SDS011;5842;52.426;4.886;2022-08-19T06:29:23;39.63;;;25.63;;
11572;SDS011;5842;52.426;4.886;2022-08-19T06:31:52;43.53;;;28.00;;
11572;SDS011;5842;52.426;4.886;2022-08-19T06:34:22;46.27;;;28.60;;
11572;SDS011;5842;52.426;4.886;2022-08-19T06:36:52;48.30;;;29.10;;
11572;SDS011;5842;52.426;4.886;2022-08-19T06:39:20;39.73;;;25.67;;
11572;SDS011;5842;52.426;4.886;2022-08-19T06:41:52;36.50;;;23.63;;
11572;SDS011;5842;52.426;4.886;2022-08-19T06:44:21;37.53;;;24.87;;
11572;SDS011;5842;52.426;4.886;2022-08-19T06:46:50;48.40;;;29.07;;
11572;SDS011;5842;52.426;4.886;2022-08-19T06:49:17;47.70;;;28.63;;
11572;SDS011;5842;52.426;4.886;2022-08-19T06:51:46;44.33;;;27.23;;
11572;SDS011;5842;52.426;4.886;2022-08-19T06:54:14;48.03;;;29.77;;
11572;SDS011;5842;52.426;4.886;2022-08-19T06:56:42;36.67;;;24.50;;
11572;SDS011;5842;52.426;4.886;2022-08-19T06:59:15;41.33;;;27.47;;
11572;SDS011;5842;52.426;4.886;2022-08-19T07:01:44;50.13;;;29.93;;
11572;SDS011;5842;52.426;4.886;2022-08-19T07:04:14;40.80;;;26.90;;
11572;SDS011;5842;52.426;4.886;2022-08-19T07:06:43;43.43;;;26.83;;
11572;SDS011;5842;52.426;4.886;2022-08-19T07:09:11;47.03;;;27.90;;
11572;SDS011;5842;52.426;4.886;2022-08-19T07:11:43;46.50;;;27.50;;
11572;SDS011;5842;52.426;4.886;2022-08-19T07:14:11;38.33;;;25.07;;
11572;SDS011;5842;52.426;4.886;2022-08-19T07:16:40;38.53;;;25.83;;
11572;SDS011;5842;52.426;4.886;2022-08-19T07:19:07;44.60;;;27.23;;
11572;SDS011;5842;52.426;4.886;2022-08-19T07:38:28;26.25;;;18.27;;
11572;SDS011;5842;52.426;4.886;2022-08-19T07:40:56;26.60;;;17.67;;
11572;SDS011;5842;52.426;4.886;2022-08-19T07:43:23;29.75;;;21.23;;
11572;SDS011;5842;52.426;4.886;2022-08-19T07:45:51;25.33;;;17.10;;
11572;SDS011;5842;52.426;4.886;2022-08-19T07:48:21;29.30;;;20.13;;
11572;SDS011;5842;52.426;4.886;2022-08-19T07:50:50;27.38;;;19.70;;
11572;SDS011;5842;52.426;4.886;2022-08-19T07:53:19;32.22;;;20.50;;
11572;SDS011;5842;52.426;4.886;2022-08-19T07:55:51;29.23;;;19.60;;
11572;SDS011;5842;52.426;4.886;2022-08-19T07:58:19;24.85;;;18.77;;
11572;SDS011;5842;52.426;4.886;2022-08-19T08:00:48;25.30;;;17.85;;
11572;SDS011;5842;52.426;4.886;2022-08-19T08:03:18;21.85;;;15.95;;
11572;SDS011;5842;52.426;4.886;2022-08-19T15:34:59;1.40;;;1.30;;
11572;SDS011;5842;52.426;4.886;2022-08-19T15:37:28;2.65;;;2.30;;
11572;SDS011;5842;52.426;4.886;2022-08-19T16:02:36;2.50;;;2.00;;
11572;SDS011;5842;52.426;4.886;2022-08-19T16:08:05;2.10;;;1.80;;
11572;SDS011;5842;52.426;4.886;2022-08-19T16:10:37;2.80;;;1.90;;
11572;SDS011;5842;52.426;4.886;2022-08-19T16:13:05;2.92;;;2.10;;
11572;SDS011;5842;52.426;4.886;2022-08-19T16:15:34;2.22;;;2.00;;
11572;SDS011;5842;52.426;4.886;2022-08-19T16:18:02;3.13;;;2.00;;
11572;SDS011;5842;52.426;4.886;2022-08-19T16:20:29;3.22;;;2.03;;
11572;SDS011;5842;52.426;4.886;2022-08-19T16:22:57;2.30;;;2.10;;
11572;SDS011;5842;52.426;4.886;2022-08-19T16:25:27;2.17;;;1.97;;
11572;SDS011;5842;52.426;4.886;2022-08-19T16:27:56;4.17;;;2.20;;
11572;SDS011;5842;52.426;4.886;2022-08-19T16:30:24;3.67;;;2.37;;
11572;SDS011;5842;52.426;4.886;2022-08-19T16:32:51;3.67;;;2.10;;
11572;SDS011;5842;52.426;4.886;2022-08-19T16:35:18;2.93;;;2.40;;
11572;SDS011;5842;52.426;4.886;2022-08-19T16:37:45;2.50;;;2.17;;
11572;SDS011;5842;52.426;4.886;2022-08-19T16:40:12;3.13;;;2.03;;
11572;SDS011;5842;52.426;4.886;2022-08-19T16:42:40;5.30;;;3.33;;
11572;SDS011;5842;52.426;4.886;2022-08-19T16:45:09;5.10;;;3.30;;
11572;SDS011;5842;52.426;4.886;2022-08-19T16:47:36;2.83;;;2.43;;
11572;SDS011;5842;52.426;4.886;2022-08-19T16:50:03;2.23;;;2.03;;
11572;SDS011;5842;52.426;4.886;2022-08-19T16:52:32;3.73;;;2.53;;
11572;SDS011;5842;52.426;4.886;2022-08-19T16:55:00;2.22;;;2.03;;
11572;SDS011;5842;52.426;4.886;2022-08-19T16:57:27;2.07;;;1.80;;
11572;SDS011;5842;52.426;4.886;2022-08-19T16:59:56;3.60;;;1.67;;
11572;SDS011;5842;52.426;4.886;2022-08-19T17:02:25;1.67;;;1.58;;
11572;SDS011;5842;52.426;4.886;2022-08-19T17:04:52;2.63;;;1.70;;
11572;SDS011;5842;52.426;4.886;2022-08-19T17:07:19;2.00;;;1.50;;
11572;SDS011;5842;52.426;4.886;2022-08-19T17:09:46;1.83;;;1.50;;
11572;SDS011;5842;52.426;4.886;2022-08-19T17:12:15;2.40;;;1.60;;
11572;SDS011;5842;52.426;4.886;2022-08-19T17:14:42;1.50;;;1.40;;
11572;SDS011;5842;52.426;4.886;2022-08-19T17:17:10;1.60;;;1.50;;
11572;SDS011;5842;52.426;4.886;2022-08-19T17:19:39;1.27;;;1.00;;
11572;SDS011;5842;52.426;4.886;2022-08-19T17:22:07;2.37;;;1.30;;
11572;SDS011;5842;52.426;4.886;2022-08-19T17:24:34;3.63;;;1.27;;
11572;SDS011;5842;52.426;4.886;2022-08-19T17:27:02;2.37;;;1.23;;
11572;SDS011;5842;52.426;4.886;2022-08-19T17:29:30;2.10;;;1.27;;
11572;SDS011;5842;52.426;4.886;2022-08-19T17:31:57;1.83;;;1.37;;
11572;SDS011;5842;52.426;4.886;2022-08-19T17:34:24;2.10;;;1.40;;
11572;SDS011;5842;52.426;4.886;2022-08-19T17:36:53;1.37;;;1.10;;
11572;SDS011;5842;52.426;4.886;2022-08-19T17:39:21;2.27;;;1.40;;
11572;SDS011;5842;52.426;4.886;2022-08-19T17:41:49;1.43;;;1.30;;
11572;SDS011;5842;52.426;4.886;2022-08-19T17:44:17;1.80;;;1.60;;
11572;SDS011;5842;52.426;4.886;2022-08-19T17:46:44;2.07;;;1.50;;
11572;SDS011;5842;52.426;4.886;2022-08-19T17:49:12;1.63;;;1.47;;
11572;SDS011;5842;52.426;4.886;2022-08-19T17:51:45;3.10;;;1.30;;
11572;SDS011;5842;52.426;4.886;2022-08-19T17:54:15;1.60;;;1.50;;
11572;SDS011;5842;52.426;4.886;2022-08-19T17:56:44;2.47;;;1.57;;
11572;SDS011;5842;52.426;4.886;2022-08-19T17:59:11;2.43;;;1.50;;
11572;SDS011;5842;52.426;4.886;2022-08-19T18:01:38;2.20;;;1.90;;
11572;SDS011;5842;52.426;4.886;2022-08-19T18:04:06;2.30;;;2.00;;
11572;SDS011;5842;52.426;4.886;2022-08-19T18:06:34;3.87;;;1.90;;
11572;SDS011;5842;52.426;4.886;2022-08-19T18:09:02;3.03;;;2.00;;
11572;SDS011;5842;52.426;4.886;2022-08-19T18:11:31;2.70;;;1.90;;
11572;SDS011;5842;52.426;4.886;2022-08-19T18:13:59;2.83;;;2.00;;
11572;SDS011;5842;52.426;4.886;2022-08-19T18:16:26;2.30;;;2.00;;
11572;SDS011;5842;52.426;4.886;2022-08-19T18:18:57;5.93;;;2.83;;
11572;SDS011;5842;52.426;4.886;2022-08-19T18:21:24;4.97;;;2.53;;
11572;SDS011;5842;52.426;4.886;2022-08-19T18:23:56;2.50;;;2.30;;
11572;SDS011;5842;52.426;4.886;2022-08-19T18:26:24;3.30;;;2.00;;
11572;SDS011;5842;52.426;4.886;2022-08-19T18:28:54;2.47;;;2.00;;
11572;SDS011;5842;52.426;4.886;2022-08-19T18:31:22;4.70;;;2.00;;
11572;SDS011;5842;52.426;4.886;2022-08-19T18:33:49;3.30;;;2.27;;
11572;SDS011;5842;52.426;4.886;2022-08-19T18:36:18;2.37;;;2.17;;
11572;SDS011;5842;52.426;4.886;2022-08-19T18:38:48;3.27;;;2.43;;
11572;SDS011;5842;52.426;4.886;2022-08-19T18:41:33;2.70;;;2.40;;
11572;SDS011;5842;52.426;4.886;2022-08-19T18:44:20;2.50;;;2.30;;
11572;SDS011;5842;52.426;4.886;2022-08-19T18:47:04;2.70;;;2.40;;
11572;SDS011;5842;52.426;4.886;2022-08-19T18:49:49;3.03;;;2.57;;
11572;SDS011;5842;52.426;4.886;2022-08-19T18:52:16;3.80;;;2.63;;
11572;SDS011;5842;52.426;4.886;2022-08-19T18:54:44;3.87;;;2.90;;
11572;SDS011;5842;52.426;4.886;2022-08-19T18:57:12;3.57;;;2.60;;
11572;SDS011;5842;52.426;4.886;2022-08-19T18:59:41;3.50;;;3.20;;
11572;SDS011;5842;52.426;4.886;2022-08-19T19:02:09;3.57;;;2.63;;
11572;SDS011;5842;52.426;4.886;2022-08-19T19:04:38;6.80;;;3.53;;
11572;SDS011;5842;52.426;4.886;2022-08-19T19:07:06;5.70;;;3.40;;
11572;SDS011;5842;52.426;4.886;2022-08-19T19:09:34;3.47;;;3.03;;
11572;SDS011;5842;52.426;4.886;2022-08-19T19:12:02;6.47;;;3.43;;
11572;SDS011;5842;52.426;4.886;2022-08-19T19:14:33;5.07;;;4.10;;
11572;SDS011;5842;52.426;4.886;2022-08-19T19:17:05;5.70;;;3.30;;
11572;SDS011;5842;52.426;4.886;2022-08-19T19:19:35;4.47;;;3.70;;
11572;SDS011;5842;52.426;4.886;2022-08-19T19:22:06;5.17;;;3.90;;
11572;SDS011;5842;52.426;4.886;2022-08-19T19:24:35;8.37;;;5.13;;
11572;SDS011;5842;52.426;4.886;2022-08-19T19:27:04;4.73;;;4.23;;
11572;SDS011;5842;52.426;4.886;2022-08-19T19:29:32;7.17;;;4.50;;
11572;SDS011;5842;52.426;4.886;2022-08-19T19:32:00;6.70;;;4.50;;
11572;SDS011;5842;52.426;4.886;2022-08-19T19:34:29;4.13;;;3.70;;
11572;SDS011;5842;52.426;4.886;2022-08-19T19:36:56;6.63;;;4.20;;
11572;SDS011;5842;52.426;4.886;2022-08-19T19:39:23;6.37;;;4.23;;
11572;SDS011;5842;52.426;4.886;2022-08-19T19:41:51;4.97;;;4.50;;
11572;SDS011;5842;52.426;4.886;2022-08-19T19:44:18;5.80;;;4.53;;
11572;SDS011;5842;52.426;4.886;2022-08-19T19:46:45;5.93;;;4.73;;
11572;SDS011;5842;52.426;4.886;2022-08-19T19:49:13;7.63;;;5.10;;
11572;SDS011;5842;52.426;4.886;2022-08-19T19:51:42;7.70;;;5.70;;
11572;SDS011;5842;52.426;4.886;2022-08-19T19:54:09;6.57;;;5.53;;
11572;SDS011;5842;52.426;4.886;2022-08-19T19:56:38;6.10;;;4.73;;
11572;SDS011;5842;52.426;4.886;2022-08-19T19:59:07;6.13;;;5.10;;
11572;SDS011;5842;52.426;4.886;2022-08-19T20:01:34;8.47;;;6.30;;
11572;SDS011;5842;52.426;4.886;2022-08-19T20:04:02;7.20;;;5.07;;
11572;SDS011;5842;52.426;4.886;2022-08-19T20:06:29;5.77;;;5.10;;
11572;SDS011;5842;52.426;4.886;2022-08-19T20:08:58;6.40;;;5.63;;
11572;SDS011;5842;52.426;4.886;2022-08-19T20:11:36;6.30;;;5.10;;
11572;SDS011;5842;52.426;4.886;2022-08-19T20:14:06;7.30;;;5.77;;
11572;SDS011;5842;52.426;4.886;2022-08-19T20:16:36;7.13;;;5.90;;
11572;SDS011;5842;52.426;4.886;2022-08-19T20:19:07;10.33;;;6.53;;
11572;SDS011;5842;52.426;4.886;2022-08-19T20:21:35;8.47;;;6.57;;
11572;SDS011;5842;52.426;4.886;2022-08-19T20:24:05;7.80;;;6.13;;
11572;SDS011;5842;52.426;4.886;2022-08-19T20:26:33;7.10;;;5.37;;
11572;SDS011;5842;52.426;4.886;2022-08-19T20:29:00;7.07;;;5.93;;
11572;SDS011;5842;52.426;4.886;2022-08-19T20:31:27;6.70;;;5.17;;
11572;SDS011;5842;52.426;4.886;2022-08-19T20:33:54;10.57;;;7.30;;
11572;SDS011;5842;52.426;4.886;2022-08-19T20:36:21;11.23;;;7.40;;
11572;SDS011;5842;52.426;4.886;2022-08-19T20:38:49;11.13;;;7.80;;
11572;SDS011;5842;52.426;4.886;2022-08-19T20:41:19;9.10;;;6.90;;
11572;SDS011;5842;52.426;4.886;2022-08-19T20:43:46;10.67;;;6.43;;
11572;SDS011;5842;52.426;4.886;2022-08-19T20:46:14;8.33;;;5.00;;
11572;SDS011;5842;52.426;4.886;2022-08-19T20:48:41;9.67;;;5.40;;
11572;SDS011;5842;52.426;4.886;2022-08-19T20:51:08;14.23;;;5.77;;
11572;SDS011;5842;52.426;4.886;2022-08-19T20:53:36;8.53;;;5.53;;
11572;SDS011;5842;52.426;4.886;2022-08-19T20:56:04;6.83;;;5.43;;
11572;SDS011;5842;52.426;4.886;2022-08-19T20:58:33;10.83;;;6.47;;
11572;SDS011;5842;52.426;4.886;2022-08-19T21:01:03;9.43;;;6.27;;
11572;SDS011;5842;52.426;4.886;2022-08-19T21:03:35;10.13;;;7.10;;
11572;SDS011;5842;52.426;4.886;2022-08-19T21:06:06;9.73;;;6.40;;
11572;SDS011;5842;52.426;4.886;2022-08-19T21:08:33;11.23;;;7.30;;
11572;SDS011;5842;52.426;4.886;2022-08-19T21:11:00;8.93;;;6.70;;
11572;SDS011;5842;52.426;4.886;2022-08-19T21:13:28;10.00;;;6.57;;
11572;SDS011;5842;52.426;4.886;2022-08-19T21:15:59;12.67;;;7.20;;
11572;SDS011;5842;52.426;4.886;2022-08-19T21:18:26;7.73;;;5.87;;
11572;SDS011;5842;52.426;4.886;2022-08-19T21:20:54;8.77;;;6.70;;
11572;SDS011;5842;52.426;4.886;2022-08-19T21:23:23;9.77;;;6.10;;
11572;SDS011;5842;52.426;4.886;2022-08-19T21:25:52;9.93;;;6.23;;
11572;SDS011;5842;52.426;4.886;2022-08-19T21:28:19;7.30;;;5.90;;
11572;SDS011;5842;52.426;4.886;2022-08-19T21:30:50;8.23;;;6.27;;
11572;SDS011;5842;52.426;4.886;2022-08-19T21:33:19;11.73;;;6.30;;
11572;SDS011;5842;52.426;4.886;2022-08-19T21:35:46;8.17;;;6.17;;
11572;SDS011;5842;52.426;4.886;2022-08-19T21:38:13;11.33;;;6.30;;
11572;SDS011;5842;52.426;4.886;2022-08-19T21:40:40;10.50;;;6.30;;
11572;SDS011;5842;52.426;4.886;2022-08-19T21:43:08;7.20;;;5.30;;
11572;SDS011;5842;52.426;4.886;2022-08-19T21:45:35;8.60;;;6.10;;
11572;SDS011;5842;52.426;4.886;2022-08-19T21:48:03;8.53;;;5.40;;
11572;SDS011;5842;52.426;4.886;2022-08-19T21:50:34;9.50;;;5.47;;
11572;SDS011;5842;52.426;4.886;2022-08-19T21:53:01;10.70;;;5.80;;
11572;SDS011;5842;52.426;4.886;2022-08-19T21:55:29;7.50;;;5.40;;
11572;SDS011;5842;52.426;4.886;2022-08-19T21:57:56;8.80;;;6.30;;
11572;SDS011;5842;52.426;4.886;2022-08-19T22:00:26;10.57;;;5.93;;
11572;SDS011;5842;52.426;4.886;2022-08-19T22:02:54;9.80;;;6.10;;
11572;SDS011;5842;52.426;4.886;2022-08-19T22:05:22;11.97;;;7.73;;
11572;SDS011;5842;52.426;4.886;2022-08-19T22:07:52;8.97;;;6.90;;
11572;SDS011;5842;52.426;4.886;2022-08-19T22:10:22;10.47;;;7.80;;
11572;SDS011;5842;52.426;4.886;2022-08-19T22:12:49;11.63;;;7.17;;
11572;SDS011;5842;52.426;4.886;2022-08-19T22:15:17;12.13;;;7.50;;
11572;SDS011;5842;52.426;4.886;2022-08-19T22:17:46;16.80;;;9.53;;
11572;SDS011;5842;52.426;4.886;2022-08-19T22:20:15;10.33;;;7.60;;
11572;SDS011;5842;52.426;4.886;2022-08-19T22:22:46;12.17;;;7.03;;
11572;SDS011;5842;52.426;4.886;2022-08-19T22:25:17;11.03;;;7.30;;
11572;SDS011;5842;52.426;4.886;2022-08-19T22:27:47;9.60;;;6.63;;
11572;SDS011;5842;52.426;4.886;2022-08-19T22:30:15;9.90;;;7.03;;
11572;SDS011;5842;52.426;4.886;2022-08-19T22:32:44;12.47;;;7.90;;
11572;SDS011;5842;52.426;4.886;2022-08-19T22:35:14;12.87;;;8.33;;
11572;SDS011;5842;52.426;4.886;2022-08-19T22:37:42;13.40;;;8.57;;
11572;SDS011;5842;52.426;4.886;2022-08-19T22:40:11;10.17;;;7.23;;
11572;SDS011;5842;52.426;4.886;2022-08-19T22:42:40;15.30;;;9.73;;
11572;SDS011;5842;52.426;4.886;2022-08-19T22:45:09;12.43;;;7.40;;
11572;SDS011;5842;52.426;4.886;2022-08-19T22:47:37;11.70;;;8.43;;
11572;SDS011;5842;52.426;4.886;2022-08-19T22:50:05;14.13;;;7.67;;
11572;SDS011;5842;52.426;4.886;2022-08-19T22:52:34;11.20;;;8.30;;
11572;SDS011;5842;52.426;4.886;2022-08-19T22:55:01;9.30;;;7.50;;
11572;SDS011;5842;52.426;4.886;2022-08-19T22:57:30;12.20;;;8.40;;
11572;SDS011;5842;52.426;4.886;2022-08-19T22:59:59;12.83;;;8.07;;
11572;SDS011;5842;52.426;4.886;2022-08-19T23:02:27;17.03;;;9.27;;
11572;SDS011;5842;52.426;4.886;2022-08-19T23:04:55;14.73;;;8.33;;
11572;SDS011;5842;52.426;4.886;2022-08-19T23:07:22;12.83;;;7.97;;